Time;durP1;ratioP1;P1;durP2;ratioP2;P2;SDS_P1;SDS_P2;PMS_P1;PMS_P2;Temp;Humidity;BMP_temperature;BMP_pressure;BME280_temperature;BME280_humidity;BME280_pressure;Samples;Min_cycle;Max_cycle;Signal;HPM_P1;HPM_P2
2023/05/12 00:01:22;;;;;;;5.93;5.43;;;16.70;90.10;;;19.41;60.39;101592.91;5055772;28;20194;-67
2023/05/12 00:03:52;;;;;;;6.30;5.80;;;16.70;90.10;;;19.39;60.43;101583.47;5055553;28;20198;-68
2023/05/12 00:06:19;;;;;;;6.20;5.80;;;16.70;90.10;;;19.35;60.76;101584.88;5056245;28;20273;-68
2023/05/12 00:08:46;;;;;;;6.50;5.90;;;16.70;90.00;;;19.30;60.72;101582.03;5054741;28;20218;-68
2023/05/12 00:11:15;;;;;;;5.97;5.47;;;16.60;89.90;;;19.25;60.52;101581.84;5055477;28;20201;-68
2023/05/12 00:13:42;;;;;;;6.30;5.70;;;16.60;90.00;;;19.19;60.62;101580.00;5055194;28;20190;-68
2023/05/12 00:16:09;;;;;;;6.63;6.07;;;16.50;89.90;;;19.14;60.58;101582.47;5050551;28;20198;-68
2023/05/12 00:18:36;;;;;;;6.97;6.37;;;16.50;90.00;;;19.09;60.86;101585.78;5055269;28;20256;-68
2023/05/12 00:21:03;;;;;;;7.17;6.57;;;16.50;90.20;;;19.06;61.35;101585.38;5055305;28;20272;-68
2023/05/12 00:23:30;;;;;;;6.20;5.73;;;16.50;90.40;;;19.04;61.28;101598.13;5055225;28;20197;-68
2023/05/12 00:25:57;;;;;;;7.07;6.47;;;16.40;90.30;;;19.01;61.08;101598.53;5055028;28;20213;-67
2023/05/12 00:28:25;;;;;;;6.13;5.53;;;16.40;90.30;;;18.98;61.02;101601.59;5055164;28;20216;-68
2023/05/12 00:30:52;;;;;;;7.30;6.40;;;16.40;90.20;;;18.93;61.25;101597.72;5054981;28;20307;-67
2023/05/12 00:33:19;;;;;;;6.80;6.30;;;16.30;90.10;;;18.88;61.07;101597.53;5054563;28;20286;-67
2023/05/12 00:35:46;;;;;;;6.33;5.83;;;16.30;90.20;;;18.84;61.26;101598.16;5054737;28;20604;-68
2023/05/12 00:38:13;;;;;;;6.13;5.63;;;16.30;90.20;;;18.79;61.33;101596.09;5054918;28;20188;-68
2023/05/12 00:40:40;;;;;;;6.60;5.80;;;16.20;90.20;;;18.76;61.41;101601.00;5054958;28;20671;-67
2023/05/12 00:43:07;;;;;;;6.27;5.80;;;16.20;90.40;;;18.74;61.71;101603.06;5044965;28;20206;-68
2023/05/12 00:45:36;;;;;;;6.50;6.00;;;16.10;90.60;;;18.74;61.68;101609.22;5034929;28;20237;-68
2023/05/12 00:48:05;;;;;;;7.50;6.90;;;16.10;90.60;;;18.71;61.68;101601.63;5034150;28;20266;-68
2023/05/12 00:50:33;;;;;;;7.40;6.80;;;16.10;90.50;;;18.70;61.71;101613.34;5034603;28;20197;-68
2023/05/12 00:53:00;;;;;;;7.30;6.73;;;16.10;90.50;;;18.68;61.77;101619.91;5043684;28;20673;-67
2023/05/12 00:55:29;;;;;;;7.53;6.73;;;16.00;90.40;;;18.64;61.75;101616.81;5054470;28;20254;-67
2023/05/12 00:57:57;;;;;;;7.33;6.73;;;16.00;90.40;;;18.61;61.70;101614.56;5054364;28;20236;-67
2023/05/12 01:00:24;;;;;;;7.43;6.87;;;16.00;90.50;;;18.58;61.74;101604.31;5059535;28;20593;-68
2023/05/12 01:02:56;;;;;;;7.47;6.87;;;16.00;90.60;;;18.57;61.90;101608.00;5065364;28;20678;-67
2023/05/12 01:05:30;;;;;;;8.63;7.93;;;15.90;90.60;;;18.54;61.85;101611.06;5056912;28;20245;-67
2023/05/12 01:07:59;;;;;;;8.83;8.13;;;15.90;90.80;;;18.53;62.04;101609.44;5054182;28;20190;-67
2023/05/12 01:10:26;;;;;;;8.23;7.63;;;15.90;90.80;;;18.52;61.92;101605.13;5054233;28;20194;-67
2023/05/12 01:12:53;;;;;;;8.53;7.77;;;15.90;90.70;;;18.49;61.92;101610.91;5053788;28;20198;-68
2023/05/12 01:15:20;;;;;;;8.70;7.90;;;15.90;90.70;;;18.48;61.89;101608.41;5053362;28;20222;-67
2023/05/12 01:17:57;;;;;;;7.93;7.30;;;15.80;90.70;;;18.45;62.13;101612.28;5054402;28;20688;-67
2023/05/12 01:20:27;;;;;;;9.93;8.93;;;15.80;90.80;;;18.45;62.02;101608.78;5054397;28;20244;-68
2023/05/12 01:22:55;;;;;;;9.23;8.53;;;15.80;90.70;;;18.44;62.02;101607.16;5053883;28;20186;-67
2023/05/12 01:25:23;;;;;;;9.20;8.50;;;15.80;90.80;;;18.41;62.21;101611.06;5054053;28;20206;-67
2023/05/12 01:27:52;;;;;;;9.47;8.57;;;15.80;90.90;;;18.40;61.99;101614.72;5053865;28;20206;-67
2023/05/12 01:30:21;;;;;;;8.53;7.83;;;15.80;90.80;;;18.37;61.98;101612.50;5054088;28;20696;-67
2023/05/12 01:32:50;;;;;;;8.10;7.30;;;15.70;90.70;;;18.36;61.97;101618.84;5053573;28;20197;-67
2023/05/12 01:35:18;;;;;;;8.60;7.90;;;15.70;90.80;;;18.35;62.15;101617.19;5053943;28;20221;-67
2023/05/12 01:37:45;;;;;;;9.67;8.87;;;15.70;90.70;;;18.32;62.21;101620.28;5053543;28;20204;-67
2023/05/12 01:40:12;;;;;;;9.17;8.47;;;15.70;90.80;;;18.30;62.29;101617.00;5053959;28;20194;-67
2023/05/12 01:42:41;;;;;;;9.23;8.53;;;15.70;90.90;;;18.29;62.34;101631.34;5053786;28;20659;-67
2023/05/12 01:45:10;;;;;;;10.87;9.77;;;15.70;90.90;;;18.29;62.38;101628.66;5053538;28;20210;-66
2023/05/12 01:47:37;;;;;;;10.43;9.53;;;15.70;90.90;;;18.27;62.44;101633.38;5053548;28;20198;-67
2023/05/12 01:50:06;;;;;;;10.47;9.47;;;15.60;90.90;;;18.29;62.56;101631.34;5052964;28;20226;-68
2023/05/12 01:52:33;;;;;;;10.90;10.07;;;15.60;90.90;;;18.29;62.23;101636.66;5053312;28;20194;-68
2023/05/12 01:55:00;;;;;;;10.60;9.80;;;15.60;90.90;;;18.31;62.29;101634.63;5053209;28;20213;-68
2023/05/12 01:57:26;;;;;;;10.73;9.83;;;15.60;90.90;;;18.33;62.09;101632.56;5053526;28;20205;-68
2023/05/12 01:59:54;;;;;;;10.40;9.60;;;15.70;90.80;;;18.37;62.11;101636.50;5052684;28;20232;-68
2023/05/12 02:02:23;;;;;;;10.07;9.27;;;15.70;91.00;;;18.40;62.02;101644.06;5054663;28;20197;-68
2023/05/12 02:04:50;;;;;;;10.63;9.73;;;15.70;91.00;;;18.44;62.02;101639.97;5053252;28;20292;-67
2023/05/12 02:07:17;;;;;;;10.80;9.90;;;15.70;90.90;;;18.48;62.11;101635.91;5052839;28;20197;-68
2023/05/12 02:09:43;;;;;;;11.27;10.27;;;15.70;91.00;;;18.53;61.86;101638.78;5053044;28;20275;-66
2023/05/12 02:12:10;;;;;;;11.93;10.93;;;15.80;91.00;;;18.59;61.80;101637.94;5037466;28;20547;-68
2023/05/12 02:14:37;;;;;;;10.70;9.90;;;15.80;91.00;;;18.61;61.58;101635.91;5052413;28;20708;-66
2023/05/12 02:17:04;;;;;;;12.97;11.80;;;15.80;91.20;;;18.66;61.54;101646.78;5053209;28;20186;-68
2023/05/12 02:19:33;;;;;;;13.37;12.30;;;15.90;90.90;;;18.70;61.27;101644.53;5053210;28;20182;-67
2023/05/12 02:22:00;;;;;;;13.83;12.70;;;15.90;90.70;;;18.70;61.29;101642.69;5053158;28;20533;-68
2023/05/12 02:24:26;;;;;;;13.67;12.37;;;15.90;90.60;;;18.72;60.88;101653.16;5052602;28;20210;-67
2023/05/12 02:26:53;;;;;;;13.90;12.70;;;15.90;90.50;;;18.72;61.04;101648.63;5053279;28;20528;-68
2023/05/12 02:29:20;;;;;;;13.93;12.73;;;15.90;90.40;;;18.72;60.88;101642.47;5052824;28;20644;-68
2023/05/12 02:31:47;;;;;;;13.27;11.97;;;15.90;90.50;;;18.73;61.06;101634.25;5053120;28;20619;-68
2023/05/12 02:34:14;;;;;;;14.03;12.80;;;15.90;90.60;;;18.76;61.17;101644.53;5043659;28;20234;-68
2023/05/12 02:36:42;;;;;;;14.37;13.07;;;15.90;90.70;;;18.81;61.17;101639.41;5033100;28;20191;-68
2023/05/12 02:39:09;;;;;;;17.40;15.80;;;16.00;90.70;;;18.84;61.04;101646.16;5033814;28;20199;-66
2023/05/12 02:41:36;;;;;;;16.27;14.87;;;16.00;90.70;;;18.86;60.78;101647.59;5052743;28;20205;-68
2023/05/12 02:44:04;;;;;;;16.70;15.10;;;16.00;90.50;;;18.87;60.65;101648.44;5052752;28;20221;-67
2023/05/12 02:46:30;;;;;;;15.47;14.10;;;16.00;90.30;;;18.86;60.75;101650.28;5053102;28;20186;-71
2023/05/12 02:48:57;;;;;;;14.87;13.57;;;16.00;90.30;;;18.87;60.41;101645.75;5052777;28;20217;-67
2023/05/12 02:51:24;;;;;;;15.43;14.13;;;16.00;90.40;;;18.88;60.64;101652.72;5053064;28;20190;-66
2023/05/12 02:53:52;;;;;;;16.40;14.80;;;16.00;90.40;;;18.90;60.69;101656.81;5052365;28;20194;-66
2023/05/12 02:56:21;;;;;;;16.53;15.10;;;16.00;90.40;;;18.89;60.60;101649.88;5052002;28;20611;-66
2023/05/12 02:58:48;;;;;;;16.63;15.17;;;16.10;90.30;;;18.90;60.50;101646.16;5052649;28;20273;-67
2023/05/12 03:01:15;;;;;;;15.70;14.30;;;16.00;90.30;;;18.91;60.39;101646.97;5052741;28;20201;-68
2023/05/12 03:03:42;;;;;;;14.70;13.50;;;16.00;90.30;;;18.91;60.66;101647.81;5052022;28;20617;-68
2023/05/12 03:06:09;;;;;;;17.37;15.73;;;16.00;90.40;;;18.92;60.55;101649.44;5052361;28;20194;-68
2023/05/12 03:08:36;;;;;;;17.57;15.77;;;16.10;90.30;;;18.93;60.52;101645.75;5051989;28;20289;-67
2023/05/12 03:11:05;;;;;;;18.27;16.57;;;16.00;90.20;;;18.94;60.24;101647.38;5055238;28;20217;-68
2023/05/12 03:13:32;;;;;;;16.90;15.43;;;16.10;90.30;;;18.94;60.31;101652.72;5055724;28;20299;-68
2023/05/12 03:16:00;;;;;;;16.80;15.30;;;16.10;90.20;;;18.94;60.27;101652.72;5055983;28;20217;-68
2023/05/12 03:18:27;;;;;;;16.60;15.10;;;16.10;90.20;;;18.93;60.17;101651.09;5056126;28;20198;-67
2023/05/12 03:20:54;;;;;;;18.73;17.00;;;16.10;90.10;;;18.93;59.91;101660.94;5056345;28;20239;-67
2023/05/12 03:23:21;;;;;;;18.60;16.80;;;16.00;90.00;;;18.89;59.93;101665.88;5055980;28;20194;-67
2023/05/12 03:25:48;;;;;;;16.80;15.30;;;16.10;90.00;;;18.86;60.23;101662.78;5056276;28;20210;-67
2023/05/12 03:28:16;;;;;;;17.63;16.13;;;16.10;90.10;;;18.87;60.11;101667.91;5056232;28;20256;-67
2023/05/12 03:30:43;;;;;;;16.37;14.90;;;16.10;90.10;;;18.85;60.23;101664.63;5045676;28;20695;-67
2023/05/12 03:33:10;;;;;;;17.60;15.90;;;16.00;90.00;;;18.84;60.22;101673.69;5035628;28;20647;-67
2023/05/12 03:35:37;;;;;;;17.87;16.17;;;16.00;90.00;;;18.82;60.37;101659.72;5036083;28;20218;-67
2023/05/12 03:38:04;;;;;;;17.40;15.73;;;16.10;90.10;;;18.85;60.14;101663.84;5036240;28;20194;-66
2023/05/12 03:40:31;;;;;;;16.87;15.37;;;16.00;90.20;;;18.86;60.22;101666.28;5049525;28;20189;-67
2023/05/12 03:42:58;;;;;;;16.80;15.20;;;16.00;90.20;;;18.85;60.12;101664.63;5056554;28;20186;-66
2023/05/12 03:45:26;;;;;;;18.70;16.80;;;16.00;90.20;;;18.87;60.33;101656.44;5056013;28;20210;-67
2023/05/12 03:47:53;;;;;;;17.03;15.43;;;16.10;90.50;;;18.90;60.68;101667.50;5056040;28;20658;-67
2023/05/12 03:50:20;;;;;;;17.13;15.63;;;16.00;90.30;;;18.89;60.40;101670.38;5055592;28;20214;-67
2023/05/12 03:52:48;;;;;;;19.07;17.10;;;16.10;90.30;;;18.89;60.55;101665.88;5055095;28;20197;-67
2023/05/12 03:55:15;;;;;;;19.13;17.33;;;16.10;90.30;;;18.89;60.48;101670.38;5055457;28;20217;-67
2023/05/12 03:57:41;;;;;;;17.00;15.30;;;16.10;90.30;;;18.87;60.62;101673.25;5055275;28;20194;-68
2023/05/12 04:00:10;;;;;;;17.80;16.10;;;16.00;90.20;;;18.88;60.52;101680.22;5055218;28;20186;-68
2023/05/12 04:02:40;;;;;;;18.00;16.23;;;16.00;90.30;;;18.86;60.46;101674.28;5055388;28;20648;-68
2023/05/12 04:05:08;;;;;;;18.87;16.00;;;16.00;90.20;;;18.85;60.71;101677.97;5035011;28;20227;-68
2023/05/12 04:07:35;;;;;;;18.50;16.80;;;16.00;90.40;;;18.85;60.54;101685.97;5035163;28;20190;-68
2023/05/12 04:10:03;;;;;;;17.23;15.70;;;16.00;90.40;;;18.85;60.38;101685.97;5035164;28;20321;-68
2023/05/12 04:12:31;;;;;;;17.60;15.80;;;16.00;90.40;;;18.83;60.62;101677.34;5038024;28;20276;-68
2023/05/12 04:14:59;;;;;;;18.87;17.13;;;16.00;90.40;;;18.86;60.73;101689.47;5054351;28;20245;-68
2023/05/12 04:17:26;;;;;;;18.23;16.43;;;16.00;90.50;;;18.87;60.73;101686.59;5055245;28;20197;-68
2023/05/12 04:19:54;;;;;;;18.27;16.57;;;16.10;90.50;;;18.88;60.86;101690.91;5054818;28;20190;-68
2023/05/12 04:22:21;;;;;;;17.50;15.80;;;16.00;90.60;;;18.91;60.50;101692.34;5054127;28;20244;-68
2023/05/12 04:24:51;;;;;;;24.30;21.33;;;16.10;90.50;;;18.93;60.63;101699.13;5054654;28;20678;-67
2023/05/12 04:27:18;;;;;;;18.70;16.93;;;16.00;90.40;;;18.93;60.49;101704.44;5053952;28;20216;-67
2023/05/12 04:29:45;;;;;;;19.00;17.37;;;16.10;90.40;;;18.93;60.67;101704.44;5054704;28;20233;-67
2023/05/12 04:32:12;;;;;;;18.40;16.80;;;16.10;90.40;;;18.96;60.55;101707.72;5054906;28;20236;-67
2023/05/12 04:34:39;;;;;;;18.70;16.83;;;16.10;90.50;;;18.98;60.52;101709.16;5054294;28;20216;-67
2023/05/12 04:37:07;;;;;;;19.10;17.40;;;16.10;90.40;;;19.01;60.62;101710.59;5054189;28;20196;-67
2023/05/12 04:39:34;;;;;;;18.63;16.80;;;16.10;90.40;;;19.03;60.39;101703.22;5054422;28;20194;-67
2023/05/12 04:42:01;;;;;;;18.57;16.93;;;16.10;90.40;;;19.04;60.19;101711.00;5054294;28;20205;-66
2023/05/12 04:44:28;;;;;;;17.90;16.20;;;16.10;90.30;;;19.05;59.96;101706.50;5053856;28;20307;-68
2023/05/12 04:46:55;;;;;;;18.27;16.50;;;16.20;90.20;;;19.05;60.18;101718.00;5054405;28;20239;-67
2023/05/12 04:49:22;;;;;;;19.23;17.53;;;16.20;90.30;;;19.05;59.99;101725.19;5054529;28;20190;-67
2023/05/12 04:51:49;;;;;;;19.47;17.57;;;16.20;90.30;;;19.04;60.07;101720.88;5054168;28;20248;-68
2023/05/12 04:54:17;;;;;;;19.03;17.33;;;16.20;90.20;;;19.05;60.18;101711.81;5053984;28;20213;-68
2023/05/12 04:56:44;;;;;;;20.40;18.50;;;16.20;90.20;;;19.05;60.20;101720.66;5054169;28;20194;-67
2023/05/12 04:59:14;;;;;;;17.73;16.17;;;16.20;90.30;;;19.07;60.15;101721.28;5053897;28;20197;-67
2023/05/12 05:01:41;;;;;;;17.37;15.77;;;16.20;90.30;;;19.08;59.96;101722.09;5053749;28;20189;-67
2023/05/12 05:04:08;;;;;;;17.50;15.80;;;16.20;90.30;;;19.10;60.16;101725.38;5052969;28;20228;-67
2023/05/12 05:06:35;;;;;;;18.47;16.77;;;16.20;90.20;;;19.12;59.90;101728.66;5052620;28;20202;-69
2023/05/12 05:09:03;;;;;;;17.93;16.43;;;16.20;90.30;;;19.14;59.88;101731.94;5053403;28;20244;-68
2023/05/12 05:11:31;;;;;;;18.83;17.07;;;16.20;90.30;;;19.17;59.89;101743.03;5053229;28;20213;-67
2023/05/12 05:13:58;;;;;;;18.47;16.67;;;16.20;90.30;;;19.21;59.70;101743.44;5053001;28;20629;-68
2023/05/12 05:16:25;;;;;;;16.80;15.30;;;16.30;90.30;;;19.24;60.03;101748.38;5053613;28;20662;-68
2023/05/12 05:18:52;;;;;;;18.07;16.30;;;16.30;90.30;;;19.26;59.87;101752.47;5053377;28;20272;-68
2023/05/12 05:21:19;;;;;;;18.53;16.83;;;16.30;90.30;;;19.30;59.53;101758.25;5053476;28;20244;-68
2023/05/12 05:23:46;;;;;;;16.17;14.77;;;16.40;90.20;;;19.32;59.92;101764.19;5038428;28;20198;-68
2023/05/12 05:26:13;;;;;;;17.60;16.00;;;16.40;90.20;;;19.34;59.47;101759.47;5033527;28;20260;-68
2023/05/12 05:28:41;;;;;;;16.13;14.70;;;16.40;90.10;;;19.37;59.45;101759.88;5043369;28;20329;-68
2023/05/12 05:31:14;;;;;;;17.33;15.70;;;16.40;90.10;;;19.41;59.58;101760.31;5052779;28;20221;-68
2023/05/12 05:33:41;;;;;;;16.90;15.40;;;16.50;90.10;;;19.45;59.31;101758.84;5052368;28;20226;-68
2023/05/12 05:36:09;;;;;;;17.03;15.53;;;16.50;90.00;;;19.50;59.04;101759.06;5052658;28;20613;-69
2023/05/12 05:38:36;;;;;;;17.30;15.80;;;16.50;90.00;;;19.54;59.15;101762.94;5052875;28;20251;-69
2023/05/12 05:41:03;;;;;;;16.23;14.83;;;16.50;90.00;;;19.58;58.91;101766.88;5052609;28;20221;-68
2023/05/12 05:43:30;;;;;;;15.50;14.17;;;16.60;90.00;;;19.63;59.12;101776.91;5053162;28;20212;-67
2023/05/12 05:45:58;;;;;;;15.27;13.87;;;16.60;89.80;;;19.68;58.53;101771.78;5052909;28;20274;-67
2023/05/12 05:48:25;;;;;;;16.30;14.80;;;16.70;89.70;;;19.71;58.94;101772.16;5052437;28;20190;-68
2023/05/12 05:50:53;;;;;;;15.47;13.97;;;16.70;89.50;;;19.75;58.79;101772.59;5040386;28;20238;-67
2023/05/12 05:53:20;;;;;;;15.67;14.17;;;16.70;89.40;;;19.79;58.95;101779.97;5032268;28;20194;-66
2023/05/12 05:55:47;;;;;;;16.40;14.87;;;16.80;89.40;;;19.81;58.25;101780.56;5037122;28;20233;-67
2023/05/12 05:58:15;;;;;;;16.17;14.77;;;16.80;89.20;;;19.86;58.19;101780.78;5052457;28;20208;-67
2023/05/12 06:00:42;;;;;;;15.57;14.17;;;16.90;89.20;;;19.88;58.49;101778.72;5052378;28;20232;-67
2023/05/12 06:03:10;;;;;;;14.57;13.27;;;16.90;88.90;;;19.92;58.37;101787.94;5051942;28;20244;-67
2023/05/12 06:05:37;;;;;;;15.07;13.77;;;16.90;88.80;;;19.98;58.42;101780.94;5052689;28;20718;-69
2023/05/12 06:08:07;;;;;;;13.70;12.50;;;17.00;88.70;;;20.02;58.26;101791.00;5052298;28;20197;-70
2023/05/12 06:10:34;;;;;;;15.47;14.17;;;17.00;88.50;;;20.04;57.55;101788.94;5052334;28;20210;-69
2023/05/12 06:13:01;;;;;;;17.00;15.40;;;17.00;88.20;;;20.07;57.70;101793.88;5052054;28;20268;-68
2023/05/12 06:15:28;;;;;;;14.83;13.43;;;17.10;88.20;;;20.11;57.84;101800.44;5052044;28;20221;-69
2023/05/12 06:17:55;;;;;;;15.07;13.77;;;17.10;88.00;;;20.14;57.35;101794.66;5052361;28;20197;-68
2023/05/12 06:20:24;;;;;;;12.67;11.47;;;17.10;87.80;;;20.20;57.65;101803.69;5034285;28;20194;-69
2023/05/12 06:22:51;;;;;;;11.57;10.67;;;17.20;87.80;;;20.24;57.59;101804.94;5032550;28;20244;-67
2023/05/12 06:25:18;;;;;;;14.03;12.67;;;17.20;87.70;;;20.29;57.30;101801.63;5032433;28;20222;-68
2023/05/12 06:27:46;;;;;;;12.93;11.73;;;17.20;87.30;;;20.34;56.82;101808.00;5034208;28;20239;-69
2023/05/12 06:30:13;;;;;;;12.63;11.63;;;17.30;87.20;;;20.41;56.82;101811.47;5052287;28;20323;-68
2023/05/12 06:32:42;;;;;;;12.00;11.00;;;17.40;86.90;;;20.48;56.35;101811.41;5050894;28;20296;-70
2023/05/12 06:35:09;;;;;;;12.80;11.60;;;17.40;86.60;;;20.59;56.26;101824.94;5051733;28;20659;-69
2023/05/12 06:37:37;;;;;;;11.67;10.57;;;17.50;86.60;;;20.76;55.83;101810.03;5052096;28;20213;-68
2023/05/12 06:40:06;;;;;;;11.50;10.50;;;17.60;86.80;;;20.99;55.42;101804.09;5051529;28;20255;-67
2023/05/12 06:42:33;;;;;;;11.17;10.17;;;17.70;86.10;;;21.21;55.16;101815.31;5052137;28;20208;-68
2023/05/12 06:45:00;;;;;;;11.87;10.77;;;17.80;86.00;;;21.37;54.62;101810.22;5051050;28;20206;-67
2023/05/12 06:47:27;;;;;;;10.67;9.67;;;17.90;85.50;;;21.52;54.42;101816.09;5055621;28;20260;-67
2023/05/12 06:49:54;;;;;;;10.07;9.27;;;18.10;85.30;;;21.64;53.90;101818.03;5055590;28;20635;-68
2023/05/12 06:52:22;;;;;;;10.67;9.63;;;18.30;84.80;;;21.78;53.47;101831.09;5048970;28;20267;-69
2023/05/12 06:54:51;;;;;;;10.50;9.50;;;18.40;84.30;;;21.92;53.33;101832.63;5034130;28;20545;-69
2023/05/12 06:57:17;;;;;;;8.93;8.23;;;18.50;83.60;;;22.04;52.61;101835.38;5036187;28;20256;-68
2023/05/12 06:59:44;;;;;;;11.80;10.67;;;18.70;83.20;;;22.12;52.16;101843.16;5036140;28;20217;-68
2023/05/12 07:02:11;;;;;;;22.57;20.50;;;18.80;82.10;;;22.19;52.41;101834.00;5035549;28;20217;-68
2023/05/12 07:04:38;;;;;;;10.17;9.27;;;19.00;82.30;;;22.33;52.05;101828.47;5052915;28;20312;-68
2023/05/12 07:07:05;;;;;;;11.43;10.37;;;19.00;81.70;;;22.50;51.44;101830.31;5058281;28;20197;-68
2023/05/12 07:09:32;;;;;;;14.87;13.37;;;19.20;81.00;;;22.68;50.94;101832.97;5054874;28;20627;-69
2023/05/12 07:12:01;;;;;;;12.00;10.90;;;19.30;81.10;;;22.87;50.97;101831.88;5055191;28;20214;-69
2023/05/12 07:14:27;;;;;;;10.10;9.30;;;19.40;80.80;;;23.03;50.51;101830.44;5054131;28;20225;-68
2023/05/12 07:16:54;;;;;;;8.80;8.00;;;19.60;80.40;;;23.14;49.61;101840.38;5035486;28;20190;-67
2023/05/12 07:19:21;;;;;;;10.13;8.63;;;19.70;78.80;;;23.24;49.62;101831.75;5034810;28;20260;-68
2023/05/12 07:21:48;;;;;;;8.23;7.53;;;19.80;78.80;;;23.36;49.14;101830.75;5035110;28;20190;-68
2023/05/12 07:24:15;;;;;;;10.00;9.10;;;19.90;78.50;;;23.48;48.15;101828.09;5034903;28;20260;-69
2023/05/12 07:26:43;;;;;;;10.73;9.73;;;20.00;77.10;;;23.59;48.40;101835.31;5035259;28;20195;-68
2023/05/12 07:29:12;;;;;;;9.70;8.77;;;20.00;77.20;;;23.65;47.86;101836.28;5050000;28;20236;-67
2023/05/12 07:31:40;;;;;;;10.27;9.47;;;20.20;76.60;;;23.69;47.67;101843.63;5055049;28;20289;-67
2023/05/12 07:34:07;;;;;;;9.00;8.30;;;20.30;76.10;;;23.72;47.47;101840.47;5054767;28;20673;-68
2023/05/12 07:36:34;;;;;;;20.27;18.17;;;20.40;76.00;;;23.71;46.97;101844.22;5055411;28;20193;-68
2023/05/12 07:39:01;;;;;;;10.77;9.83;;;20.40;75.00;;;23.72;46.77;101840.47;5055401;28;20201;-67
2023/05/12 07:41:28;;;;;;;10.03;8.83;;;20.50;74.00;;;23.79;47.62;101835.81;5055169;28;20201;-67
2023/05/12 07:43:55;;;;;;;8.33;7.67;;;20.50;74.70;;;23.86;47.47;101847.25;5054948;28;20280;-67
2023/05/12 07:46:23;;;;;;;8.27;7.50;;;20.60;74.50;;;23.97;46.74;101843.72;5055798;28;20542;-68
2023/05/12 07:48:50;;;;;;;8.20;7.40;;;20.70;74.20;;;24.17;47.02;101846.91;5046787;28;20229;-68
2023/05/12 07:51:17;;;;;;;7.83;7.13;;;20.80;74.20;;;24.47;46.05;101844.00;5035500;28;20226;-69
2023/05/12 07:53:44;;;;;;;8.17;7.47;;;20.90;74.20;;;24.83;45.41;101842.84;5034690;28;20194;-68
2023/05/12 07:56:11;;;;;;;15.67;6.43;;;21.10;73.10;;;25.22;44.59;101836.50;5033820;28;20203;-68
2023/05/12 07:58:38;;;;;;;7.33;6.83;;;21.30;73.50;;;25.59;43.38;101839.56;5034382;28;20622;-69
2023/05/12 08:01:05;;;;;;;7.97;7.17;;;21.60;71.90;;;25.91;42.85;101845.97;5034719;28;20541;-68
2023/05/12 08:03:34;;;;;;;6.93;6.40;;;21.80;71.10;;;26.30;42.51;101844.09;5042655;28;20205;-67
2023/05/12 08:06:04;;;;;;;7.43;6.83;;;22.00;70.70;;;26.68;41.46;101846.69;5054449;28;20209;-69
2023/05/12 08:08:31;;;;;;;7.87;7.17;;;22.30;70.10;;;27.09;40.61;101844.41;5053768;28;20239;-69
2023/05/12 08:10:58;;;;;;;7.03;6.10;;;22.60;68.40;;;27.48;40.33;101845.88;5054034;28;20216;-68
2023/05/12 08:13:25;;;;;;;7.43;6.17;;;22.90;68.90;;;27.93;39.77;101851.56;5054629;28;20244;-68
2023/05/12 08:15:52;;;;;;;8.67;6.10;;;23.30;67.60;;;28.32;38.36;101846.63;5054703;28;20300;-68
2023/05/12 08:18:19;;;;;;;6.50;5.97;;;23.60;65.60;;;28.48;37.36;101847.50;5054915;28;20194;-71
2023/05/12 08:20:49;;;;;;;6.87;5.73;;;24.00;63.60;;;28.37;37.42;101848.53;5054637;28;20195;-67
2023/05/12 08:23:16;;;;;;;6.10;5.60;;;24.20;61.60;;;28.30;36.97;101859.63;5054455;28;20194;-69
2023/05/12 08:25:43;;;;;;;5.17;4.83;;;24.30;60.30;;;28.45;37.04;101850.75;5054696;28;20210;-69
2023/05/12 08:28:11;;;;;;;10.50;5.97;;;24.40;61.30;;;28.80;36.85;101859.00;5054416;28;20598;-68
2023/05/12 08:30:38;;;;;;;5.40;4.90;;;24.50;60.70;;;29.04;35.86;101849.28;5054196;28;20234;-68
2023/05/12 08:33:08;;;;;;;5.77;5.27;;;24.70;60.40;;;29.32;35.91;101846.06;5053439;28;20208;-69
2023/05/12 08:35:35;;;;;;;6.37;5.77;;;24.90;60.70;;;29.58;35.47;101854.16;5054216;28;20229;-71
2023/05/12 08:38:04;;;;;;;21.43;19.53;;;25.10;59.70;;;29.87;35.30;101847.06;5054231;28;20281;-69
2023/05/12 08:40:46;;;;;;;16.40;14.63;;;25.30;59.50;;;30.36;34.29;101850.72;5053713;28;20194;-69
2023/05/12 08:43:24;;;;;;;9.53;8.73;;;25.50;59.20;;;31.09;32.98;101848.13;5054198;28;20235;-69
2023/05/12 08:45:56;;;;;;;4.97;4.57;;;25.80;57.40;;;31.96;31.64;101853.28;5038758;28;20238;-68
2023/05/12 08:48:26;;;;;;;5.00;4.60;;;26.30;56.00;;;33.02;30.65;101851.13;5033950;28;20717;-68
2023/05/12 08:50:55;;;;;;;5.80;5.30;;;26.80;55.10;;;33.81;28.98;101845.34;5034421;28;20209;-68
2023/05/12 08:53:26;;;;;;;5.57;4.67;;;27.40;53.10;;;34.73;27.19;101845.84;5032608;28;20515;-67
2023/05/12 08:55:55;;;;;;;6.57;6.07;;;28.10;50.50;;;35.23;26.38;101843.84;5033339;28;20270;-67
2023/05/12 08:58:44;;;;;;;6.03;4.13;;;28.60;48.90;;;36.03;26.66;101842.00;5053162;28;20590;-69
2023/05/12 09:01:13;;;;;;;5.15;4.53;;;29.10;49.60;;;36.97;25.68;101845.69;5053497;28;20190;-70
2023/05/12 09:03:41;;;;;;;4.40;4.00;;;29.70;48.00;;;37.97;23.70;101846.84;5053778;28;20186;-69
2023/05/12 09:06:10;;;;;;;4.57;4.28;;;30.30;46.30;;;39.08;23.25;101844.44;5053465;28;20189;-69
2023/05/12 09:08:40;;;;;;;4.68;3.88;;;31.00;45.40;;;40.06;21.88;101846.22;5052870;28;20194;-69
2023/05/12 09:11:12;;;;;;;3.72;3.42;;;31.70;42.90;;;40.77;20.28;101844.41;5053399;28;20249;-69
2023/05/12 09:13:51;;;;;;;4.13;3.83;;;32.40;38.80;;;41.51;19.73;101845.69;5053679;28;20689;-68
2023/05/12 09:16:22;;;;;;;4.50;4.03;;;33.00;38.60;;;41.79;19.19;101846.41;5054357;28;20201;-68
2023/05/12 09:18:52;;;;;;;3.90;3.70;;;33.50;36.60;;;41.93;18.86;101843.97;5053588;28;20186;-69
2023/05/12 09:21:20;;;;;;;5.07;4.68;;;33.90;36.00;;;42.28;18.81;101839.25;5053684;28;20716;-68
2023/05/12 09:23:57;;;;;;;4.60;4.30;;;34.30;35.40;;;42.80;18.19;101836.00;5052878;28;20673;-69
2023/05/12 09:26:27;;;;;;;4.80;4.28;;;34.70;34.10;;;43.17;17.62;101839.09;5053994;28;20261;-68
2023/05/12 09:29:05;;;;;;;4.63;4.22;;;35.00;32.20;;;43.69;16.65;101839.25;5040612;28;20546;-69
2023/05/12 09:31:33;;;;;;;7.60;5.38;;;35.30;30.30;;;44.26;16.03;101834.53;5033295;28;20205;-69
2023/05/12 09:34:05;;;;;;;4.20;3.90;;;35.60;30.00;;;44.60;15.56;101838.94;5033086;28;20272;-68
2023/05/12 09:36:33;;;;;;;4.07;3.83;;;36.00;29.00;;;44.69;15.48;101835.88;5033095;28;20195;-68
2023/05/12 09:39:05;;;;;;;5.75;4.32;;;36.30;28.40;;;44.33;16.56;101840.19;5034091;28;20191;-67
2023/05/12 09:41:37;;;;;;;5.10;4.72;;;36.50;29.30;;;43.46;15.92;101837.66;5042235;28;20534;-69
2023/05/12 09:44:06;;;;;;;7.13;6.47;;;36.40;27.20;;;42.59;15.09;101845.84;5033008;28;20249;-69
2023/05/12 09:46:34;;;;;;;4.13;3.80;;;36.20;25.80;;;41.89;15.42;101842.28;5031864;28;20577;-68
2023/05/12 09:49:02;;;;;;;3.90;3.70;;;35.90;25.70;;;41.97;15.94;101839.31;5033357;28;20215;-68
2023/05/12 09:51:32;;;;;;;4.03;3.65;;;35.70;26.60;;;42.29;15.88;101838.06;5032790;28;20218;-69
2023/05/12 09:53:59;;;;;;;4.30;3.90;;;35.60;26.80;;;42.63;15.13;101836.44;5032011;28;20206;-68
2023/05/12 09:56:31;;;;;;;4.43;4.03;;;35.60;26.10;;;43.17;15.15;101833.53;5032155;28;20270;-69
2023/05/12 09:59:01;;;;;;;8.65;4.35;;;35.70;26.70;;;43.52;15.08;101834.19;5032898;28;20219;-69
2023/05/12 10:01:29;;;;;;;4.47;4.13;;;35.80;26.80;;;43.68;14.39;101845.97;5032773;28;20186;-69
2023/05/12 10:04:01;;;;;;;5.20;4.20;;;35.90;26.50;;;43.63;14.58;101840.69;5044236;28;20213;-69
2023/05/12 10:06:41;;;;;;;8.52;7.82;;;36.00;26.30;;;43.60;15.13;101841.44;5052780;28;20205;-69
2023/05/12 10:09:18;;;;;;;5.10;4.60;;;36.20;26.50;;;43.62;14.99;101836.34;5051677;28;20259;-69